Time;durP1;ratioP1;P1;durP2;ratioP2;P2;SDS_P1;SDS_P2;PMS_P1;PMS_P2;Temp;Humidity;BMP_temperature;BMP_pressure;BME280_temperature;BME280_humidity;BME280_pressure;Samples;Min_cycle;Max_cycle;Signal;HPM_P1;HPM_P2
2022/11/27 00:00:53;;;;;;;9.50;5.57;;;5.30;1.00;;;;;;4953488;28;20188;-83
2022/11/27 00:03:19;;;;;;;10.03;5.43;;;5.30;1.00;;;;;;4958363;28;20193;-82
2022/11/27 00:05:55;;;;;;;13.20;6.53;;;5.30;1.00;;;;;;4956126;28;20211;-83
2022/11/27 00:08:22;;;;;;;18.08;6.00;;;5.30;1.00;;;;;;4958328;28;20201;-83
2022/11/27 00:10:48;;;;;;;11.48;5.47;;;5.30;1.00;;;;;;4957608;28;20684;-83
2022/11/27 00:13:13;;;;;;;10.63;5.40;;;5.30;1.00;;;;;;4959884;28;20191;-83
2022/11/27 00:15:39;;;;;;;12.10;5.73;;;5.30;1.00;;;;;;4960874;28;20212;-83
2022/11/27 00:18:05;;;;;;;13.33;5.40;;;5.30;1.00;;;;;;4962945;28;20189;-83
2022/11/27 00:20:31;;;;;;;10.53;5.50;;;5.30;1.00;;;;;;4969672;28;20185;-83
2022/11/27 00:22:56;;;;;;;16.50;5.70;;;5.30;1.00;;;;;;4964729;28;20252;-83
2022/11/27 00:25:22;;;;;;;9.37;4.80;;;5.40;1.00;;;;;;4963582;28;20515;-82
2022/11/27 00:27:47;;;;;;;11.93;5.80;;;5.40;1.00;;;;;;4953077;28;20622;-82
2022/11/27 00:30:14;;;;;;;9.43;4.80;;;5.40;1.00;;;;;;4951610;28;20205;-83
2022/11/27 00:32:39;;;;;;;15.55;7.07;;;5.40;99.90;;;;;;4955886;28;20298;-82
2022/11/27 00:35:06;;;;;;;10.20;5.40;;;5.40;99.90;;;;;;4949447;28;20296;-82
2022/11/27 00:37:31;;;;;;;9.70;4.25;;;5.40;1.00;;;;;;4952633;28;20224;-82
2022/11/27 00:39:57;;;;;;;11.30;4.70;;;5.40;1.00;;;;;;4952991;28;20219;-82
2022/11/27 00:42:22;;;;;;;12.50;5.77;;;5.30;1.00;;;;;;4954481;28;20199;-82
2022/11/27 00:44:48;;;;;;;16.60;4.60;;;5.30;1.00;;;;;;4962931;28;20279;-82
2022/11/27 00:47:13;;;;;;;10.80;4.43;;;5.30;1.00;;;;;;4967163;28;20274;-82
2022/11/27 00:49:38;;;;;;;10.47;4.87;;;5.30;1.00;;;;;;4967794;28;20705;-82
2022/11/27 00:52:04;;;;;;;13.33;6.90;;;5.30;1.00;;;;;;4952618;28;20192;-83
2022/11/27 00:54:30;;;;;;;12.57;4.43;;;5.40;1.00;;;;;;4952743;28;20208;-81
2022/11/27 00:56:55;;;;;;;12.30;4.33;;;5.40;1.00;;;;;;4954069;28;20212;-82
2022/11/27 00:59:21;;;;;;;13.90;4.57;;;5.40;1.00;;;;;;4951340;28;20213;-83
2022/11/27 01:01:47;;;;;;;18.27;9.40;;;5.40;1.00;;;;;;4963710;28;20193;-82
2022/11/27 01:04:14;;;;;;;12.60;4.82;;;5.40;1.00;;;;;;4958081;28;20191;-82
2022/11/27 01:06:41;;;;;;;11.02;4.00;;;5.40;1.00;;;;;;4950530;28;20201;-83
2022/11/27 01:09:07;;;;;;;15.88;5.15;;;5.40;1.00;;;;;;4954025;28;20728;-82
2022/11/27 01:11:34;;;;;;;10.93;5.40;;;5.40;1.00;;;;;;4956073;28;20212;-83
2022/11/27 01:14:04;;;;;;;48.10;43.28;;;5.40;1.00;;;;;;4956581;28;20189;-82
2022/11/27 01:16:31;;;;;;;16.65;4.50;;;5.50;1.00;;;;;;4956368;28;20197;-83
2022/11/27 01:18:58;;;;;;;14.57;4.68;;;5.50;1.00;;;;;;4954542;28;20720;-82
2022/11/27 01:21:26;;;;;;;14.75;4.80;;;5.60;1.00;;;;;;4953352;28;20189;-82
2022/11/27 01:23:53;;;;;;;17.85;6.10;;;5.60;99.90;;;;;;4955025;28;20197;-83
2022/11/27 01:26:18;;;;;;;20.85;5.00;;;5.60;99.90;;;;;;4950512;28;20210;-82
2022/11/27 01:28:45;;;;;;;13.53;4.80;;;5.60;99.90;;;;;;4957500;28;20205;-83
2022/11/27 01:31:18;;;;;;;13.10;5.72;;;5.60;99.90;;;;;;4954668;28;20275;-83
2022/11/27 01:33:45;;;;;;;9.48;3.95;;;5.60;99.90;;;;;;4966751;28;20205;-82
2022/11/27 01:36:13;;;;;;;8.90;3.92;;;5.60;99.90;;;;;;4955620;28;20614;-83
2022/11/27 01:38:39;;;;;;;7.18;3.75;;;5.60;99.90;;;;;;4972985;28;20275;-83
2022/11/27 01:41:17;;;;;;;8.75;3.65;;;5.60;99.90;;;;;;4955113;28;20191;-83
2022/11/27 01:43:52;;;;;;;11.73;4.75;;;5.50;99.90;;;;;;4959287;28;20215;-83
2022/11/27 01:46:29;;;;;;;11.23;3.83;;;5.50;99.90;;;;;;4966813;28;20315;-83
2022/11/27 01:49:08;;;;;;;11.60;5.32;;;5.40;99.90;;;;;;4977931;28;20191;-83
2022/11/27 01:51:46;;;;;;;11.70;4.63;;;5.40;99.90;;;;;;4954132;28;20193;-82
2022/11/27 01:54:13;;;;;;;11.13;4.40;;;5.40;99.90;;;;;;4958925;28;20175;-83
2022/11/27 01:56:42;;;;;;;7.30;4.18;;;5.40;99.90;;;;;;4965678;28;20297;-83
2022/11/27 01:59:07;;;;;;;12.43;4.70;;;5.40;99.90;;;;;;4974146;28;20299;-82
2022/11/27 02:01:33;;;;;;;10.47;4.00;;;5.30;99.90;;;;;;4958276;28;20703;-83
2022/11/27 02:04:00;;;;;;;9.20;4.20;;;5.30;99.90;;;;;;4956847;28;20209;-82
2022/11/27 02:06:26;;;;;;;12.70;5.15;;;5.30;99.90;;;;;;4965466;28;20220;-83
2022/11/27 02:08:52;;;;;;;15.00;5.10;;;5.30;1.00;;;;;;4960590;28;20192;-83
2022/11/27 02:11:29;;;;;;;11.20;5.27;;;5.30;1.00;;;;;;4958258;28;20452;-83
2022/11/27 02:14:31;;;;;;;8.20;4.07;;;5.20;1.00;;;;;;4957193;28;20439;-83
2022/11/27 02:17:15;;;;;;;12.65;4.43;;;5.20;1.00;;;;;;4959833;28;20696;-83
2022/11/27 02:20:07;;;;;;;11.38;5.60;;;5.20;1.00;;;;;;4958548;28;20193;-83
2022/11/27 02:23:08;;;;;;;8.77;4.60;;;5.20;1.00;;;;;;4954725;29;20188;-82
2022/11/27 02:26:18;;;;;;;12.98;5.00;;;5.20;1.00;;;;;;4897169;29;20246;-83
2022/11/27 02:29:03;;;;;;;9.73;5.15;;;5.20;1.00;;;;;;4953725;28;20193;-83
2022/11/27 02:31:55;;;;;;;15.05;5.38;;;5.20;1.00;;;;;;4958437;28;20252;-83
2022/11/27 02:34:26;;;;;;;14.07;5.38;;;5.20;1.00;;;;;;4962549;28;20189;-83
2022/11/27 02:37:17;;;;;;;11.30;5.32;;;5.20;1.00;;;;;;4959763;28;20232;-83
2022/11/27 02:40:09;;;;;;;10.82;5.82;;;5.20;1.00;;;;;;4955724;28;20247;-83
2022/11/27 02:42:46;;;;;;;11.52;4.97;;;5.20;1.00;;;;;;4947604;28;20221;-83
2022/11/27 02:45:16;;;;;;;10.90;5.38;;;5.30;1.00;;;;;;4970681;28;20201;-83
2022/11/27 02:47:45;;;;;;;11.27;5.82;;;5.30;1.00;;;;;;4960852;28;20201;-82
2022/11/27 02:50:18;;;;;;;16.25;5.82;;;5.30;1.00;;;;;;4966193;28;20189;-83
2022/11/27 02:52:45;;;;;;;16.60;6.00;;;5.30;1.00;;;;;;4958522;28;20189;-83
2022/11/27 02:55:15;;;;;;;15.52;5.47;;;5.40;1.00;;;;;;4958150;28;20220;-82
2022/11/27 02:57:43;;;;;;;12.02;6.28;;;5.40;1.00;;;;;;4956183;28;20185;-82
2022/11/27 03:00:09;;;;;;;16.10;6.97;;;5.40;1.00;;;;;;4957680;28;20236;-84
2022/11/27 03:02:46;;;;;;;15.25;6.68;;;5.50;1.00;;;;;;4976762;28;20192;-82
2022/11/27 03:05:17;;;;;;;18.67;6.88;;;5.50;99.90;;;;;;4961457;28;20219;-82
2022/11/27 03:07:55;;;;;;;14.00;6.80;;;5.50;99.90;;;;;;4959057;28;20209;-82
2022/11/27 03:10:30;;;;;;;13.27;6.38;;;5.50;99.90;;;;;;4957709;28;20184;-82
2022/11/27 03:12:57;;;;;;;10.30;6.00;;;5.60;99.90;;;;;;4957453;28;20466;-82
2022/11/27 03:15:24;;;;;;;16.48;6.80;;;5.60;99.90;;;;;;4954572;28;20225;-82
2022/11/27 03:18:00;;;;;;;16.90;7.20;;;5.60;99.90;;;;;;4957868;28;20189;-82
2022/11/27 03:20:31;;;;;;;12.27;7.88;;;5.60;99.90;;;;;;4957343;28;20188;-83
2022/11/27 03:22:57;;;;;;;17.80;6.07;;;5.60;99.90;;;;;;4956602;28;20244;-82
2022/11/27 03:25:23;;;;;;;12.57;7.30;;;5.60;99.90;;;;;;4957948;28;20216;-82
2022/11/27 03:27:57;;;;;;;15.43;6.93;;;5.60;99.90;;;;;;4958382;28;20567;-83
2022/11/27 03:30:22;;;;;;;16.30;7.20;;;5.60;99.90;;;;;;4955335;28;20267;-83
2022/11/27 03:32:48;;;;;;;17.33;7.53;;;5.60;99.90;;;;;;4961263;28;20180;-82
2022/11/27 03:35:17;;;;;;;13.10;6.63;;;5.60;99.90;;;;;;4955812;28;20208;-82
2022/11/27 03:37:42;;;;;;;13.65;7.18;;;5.60;99.90;;;;;;4956466;29;20252;-82
2022/11/27 03:40:09;;;;;;;14.70;7.70;;;5.60;99.90;;;;;;4956676;28;20223;-82
2022/11/27 03:42:53;;;;;;;17.55;7.82;;;5.70;99.90;;;;;;4960988;28;20196;-83
2022/11/27 03:45:35;;;;;;;13.38;6.70;;;5.70;99.90;;;;;;4958439;28;20266;-82
2022/11/27 03:48:12;;;;;;;14.38;7.60;;;5.70;99.90;;;;;;4971483;28;21581;-82
2022/11/27 03:51:02;;;;;;;13.10;6.90;;;5.70;99.90;;;;;;4954149;28;20200;-82
2022/11/27 03:53:43;;;;;;;16.25;8.05;;;5.70;99.90;;;;;;4956139;29;20783;-82
2022/11/27 03:56:40;;;;;;;14.85;6.65;;;5.70;99.90;;;;;;4969712;28;20271;-82
2022/11/27 03:59:27;;;;;;;18.80;7.35;;;5.70;99.90;;;;;;4967175;28;20200;-81
2022/11/27 04:01:52;;;;;;;23.40;7.97;;;5.70;99.90;;;;;;4949407;28;20551;-82
2022/11/27 04:04:18;;;;;;;16.77;7.97;;;5.70;99.90;;;;;;4952755;28;20193;-81
2022/11/27 04:06:44;;;;;;;18.80;7.20;;;5.80;99.90;;;;;;4950357;28;20216;-81
2022/11/27 04:09:09;;;;;;;12.13;7.43;;;5.80;99.90;;;;;;4952144;28;20215;-81
2022/11/27 04:11:35;;;;;;;17.23;7.83;;;5.80;99.90;;;;;;4954278;28;20335;-82
2022/11/27 04:14:01;;;;;;;20.33;7.73;;;5.80;99.90;;;;;;4954639;28;20692;-82
2022/11/27 04:16:26;;;;;;;14.90;7.60;;;5.80;99.90;;;;;;4953092;28;20335;-82
2022/11/27 04:18:52;;;;;;;12.77;7.20;;;5.80;99.90;;;;;;4952545;28;20192;-81
2022/11/27 04:21:18;;;;;;;13.90;7.67;;;5.80;99.90;;;;;;4965972;28;20185;-82
2022/11/27 04:23:43;;;;;;;10.90;7.72;;;5.80;99.90;;;;;;4953431;28;20208;-82
2022/11/27 04:26:09;;;;;;;17.00;7.20;;;5.80;99.90;;;;;;4949613;28;20704;-81
2022/11/27 04:28:34;;;;;;;11.97;6.10;;;5.80;99.90;;;;;;4954230;28;20220;-82
2022/11/27 04:31:00;;;;;;;10.20;6.00;;;5.80;99.90;;;;;;4968880;28;20205;-82
2022/11/27 04:33:26;;;;;;;19.50;7.57;;;5.80;99.90;;;;;;4959321;28;20192;-83
2022/11/27 04:35:52;;;;;;;11.63;8.07;;;5.80;99.90;;;;;;4947845;28;20248;-82
2022/11/27 04:38:18;;;;;;;12.13;6.70;;;5.90;99.90;;;;;;4953287;28;20268;-82
2022/11/27 04:40:44;;;;;;;14.00;7.05;;;5.90;99.90;;;;;;4953609;28;20566;-82
2022/11/27 04:43:09;;;;;;;14.30;7.43;;;5.90;99.90;;;;;;4954687;28;20185;-81
2022/11/27 04:45:35;;;;;;;20.50;7.67;;;5.90;99.90;;;;;;4955349;28;20258;-82
2022/11/27 04:48:01;;;;;;;13.35;6.50;;;6.00;99.90;;;;;;4956227;28;20228;-83
2022/11/27 04:50:26;;;;;;;17.97;7.50;;;6.00;99.90;;;;;;4956148;28;20185;-82
2022/11/27 04:52:52;;;;;;;11.27;6.50;;;6.00;99.90;;;;;;4952766;28;20185;-82
2022/11/27 04:55:17;;;;;;;14.37;7.70;;;6.00;99.90;;;;;;4957573;28;20840;-82
2022/11/27 04:57:43;;;;;;;13.20;6.67;;;6.00;99.90;;;;;;4956564;28;20243;-82
2022/11/27 05:00:09;;;;;;;12.27;6.83;;;6.00;99.90;;;;;;4956510;28;20564;-83
2022/11/27 05:02:34;;;;;;;16.67;7.40;;;6.00;99.90;;;;;;4958083;28;20573;-82
2022/11/27 05:05:00;;;;;;;16.23;7.90;;;6.00;99.90;;;;;;4955714;28;20316;-82
2022/11/27 05:07:26;;;;;;;14.03;7.73;;;6.00;99.90;;;;;;4957545;28;20300;-82
2022/11/27 05:09:51;;;;;;;13.00;7.60;;;6.00;99.90;;;;;;4954571;28;20283;-82
2022/11/27 05:12:17;;;;;;;17.47;9.43;;;6.00;99.90;;;;;;4954864;28;20196;-82
2022/11/27 05:14:42;;;;;;;22.27;8.47;;;6.00;99.90;;;;;;4955253;28;20201;-82
2022/11/27 05:17:08;;;;;;;23.70;8.33;;;6.00;99.90;;;;;;4954471;28;20197;-81
2022/11/27 05:19:34;;;;;;;17.30;7.13;;;6.00;99.90;;;;;;4955197;28;20199;-82
2022/11/27 05:22:00;;;;;;;15.10;7.57;;;6.00;99.90;;;;;;4955654;28;20669;-82
2022/11/27 05:24:28;;;;;;;12.53;7.17;;;6.00;99.90;;;;;;4957382;28;20283;-82
2022/11/27 05:26:54;;;;;;;10.45;6.57;;;6.00;99.90;;;;;;4954513;28;20240;-82
2022/11/27 05:29:21;;;;;;;19.52;7.90;;;6.00;99.90;;;;;;4955789;28;20199;-82
2022/11/27 05:31:46;;;;;;;11.65;7.32;;;6.00;93.20;;;;;;4955269;28;20225;-82
2022/11/27 05:34:12;;;;;;;13.40;7.37;;;6.00;95.90;;;;;;4956468;28;20197;-82
2022/11/27 05:36:38;;;;;;;12.85;7.07;;;6.00;56.10;;;;;;4955231;28;20213;-82
2022/11/27 05:39:06;;;;;;;11.73;7.20;;;6.00;92.10;;;;;;4956500;28;20205;-81
2022/11/27 05:41:33;;;;;;;10.25;7.03;;;6.00;81.80;;;;;;4956408;28;20193;-82
2022/11/27 05:43:58;;;;;;;17.80;8.10;;;6.00;92.00;;;;;;4968623;28;20193;-83
2022/11/27 05:46:24;;;;;;;11.10;6.77;;;6.00;90.40;;;;;;4959641;28;20225;-82
2022/11/27 05:48:49;;;;;;;13.27;7.50;;;6.00;82.60;;;;;;4972292;28;20831;-82
2022/11/27 05:51:15;;;;;;;17.97;8.07;;;6.00;92.50;;;;;;4958206;28;20188;-83
2022/11/27 05:53:41;;;;;;;19.67;10.18;;;6.00;68.80;;;;;;4975014;28;20980;-82
2022/11/27 05:56:10;;;;;;;20.70;10.90;;;6.00;97.20;;;;;;4961243;28;20214;-82
2022/11/27 05:58:36;;;;;;;15.23;9.77;;;6.00;99.90;;;;;;4958771;28;20456;-82
2022/11/27 06:01:03;;;;;;;13.32;8.60;;;6.00;99.90;;;;;;4957191;28;20223;-82
2022/11/27 06:03:29;;;;;;;19.27;8.38;;;6.00;99.90;;;;;;4975458;28;20766;-82
2022/11/27 06:05:55;;;;;;;13.00;7.60;;;6.00;99.90;;;;;;4958604;28;20209;-81
2022/11/27 06:08:20;;;;;;;15.63;7.33;;;6.00;99.90;;;;;;4959631;28;21022;-83
2022/11/27 06:10:46;;;;;;;13.43;6.90;;;6.00;99.90;;;;;;4957669;28;20193;-83
2022/11/27 06:13:13;;;;;;;15.50;8.00;;;6.10;63.30;;;;;;4958485;28;20185;-83
2022/11/27 06:15:39;;;;;;;12.13;6.05;;;6.10;88.10;;;;;;4960055;28;20900;-83
2022/11/27 06:18:05;;;;;;;16.58;7.25;;;6.10;38.30;;;;;;4955554;28;20191;-83
2022/11/27 06:20:30;;;;;;;17.13;7.23;;;6.10;26.00;;;;;;4957931;28;20549;-83
2022/11/27 06:22:56;;;;;;;16.33;8.40;;;6.10;20.80;;;;;;4959970;28;20695;-83
2022/11/27 06:25:22;;;;;;;12.60;7.70;;;6.10;16.60;;;;;;4957624;28;20213;-82
2022/11/27 06:27:48;;;;;;;16.80;7.97;;;6.10;48.50;;;;;;4960687;28;20216;-83
2022/11/27 06:30:14;;;;;;;15.52;7.63;;;6.10;54.30;;;;;;4959077;28;20215;-83
2022/11/27 06:32:40;;;;;;;17.40;7.83;;;6.00;93.30;;;;;;4960121;28;20264;-82
2022/11/27 06:35:06;;;;;;;14.50;7.07;;;6.00;77.70;;;;;;4957710;28;20665;-82
2022/11/27 06:37:31;;;;;;;16.92;8.43;;;6.00;92.80;;;;;;4956680;28;20188;-82
2022/11/27 06:39:57;;;;;;;17.13;8.60;;;6.00;90.90;;;;;;4959283;28;20264;-83
2022/11/27 06:42:22;;;;;;;19.10;8.43;;;6.00;39.30;;;;;;4959797;28;20227;-81
2022/11/27 06:44:48;;;;;;;12.20;7.73;;;6.00;81.70;;;;;;4959594;28;20227;-82
2022/11/27 06:47:14;;;;;;;15.80;7.97;;;6.00;51.60;;;;;;4958812;28;20221;-82
2022/11/27 06:49:39;;;;;;;12.23;6.60;;;6.10;45.70;;;;;;4957717;28;21927;-83
2022/11/27 06:52:05;;;;;;;12.07;7.07;;;6.10;47.60;;;;;;4958735;28;20188;-83
2022/11/27 06:54:30;;;;;;;14.43;7.90;;;6.10;12.90;;;;;;4954493;28;20665;-83
2022/11/27 06:56:57;;;;;;;15.20;6.60;;;6.10;1.00;;;;;;4959649;28;20811;-82
2022/11/27 06:59:23;;;;;;;11.93;7.30;;;6.10;1.00;;;;;;4957219;28;20208;-83
2022/11/27 07:01:48;;;;;;;15.93;7.43;;;6.10;1.00;;;;;;4960395;28;20247;-84
2022/11/27 07:04:14;;;;;;;11.77;6.30;;;6.20;1.00;;;;;;4959291;28;20264;-83
2022/11/27 07:06:41;;;;;;;14.68;7.30;;;6.20;1.00;;;;;;4958070;28;20214;-82
2022/11/27 07:09:07;;;;;;;14.35;7.35;;;6.40;1.00;;;;;;4960800;28;20193;-83
2022/11/27 07:11:33;;;;;;;18.08;7.07;;;6.50;1.00;;;;;;4957101;28;20694;-83
2022/11/27 07:14:03;;;;;;;12.77;6.45;;;6.60;1.00;;;;;;4959128;28;20189;-83
2022/11/27 07:16:32;;;;;;;12.18;6.88;;;6.60;99.90;;;;;;4959931;28;20204;-82
2022/11/27 07:19:00;;;;;;;11.85;7.55;;;6.70;99.90;;;;;;4959725;28;20185;-83
2022/11/27 07:21:27;;;;;;;14.30;7.47;;;6.70;99.90;;;;;;4958931;28;20189;-84
2022/11/27 07:23:55;;;;;;;11.27;7.30;;;6.70;99.90;;;;;;4959895;28;20193;-84
2022/11/27 07:26:25;;;;;;;13.45;6.63;;;6.80;90.20;;;;;;4959145;28;20225;-84
2022/11/27 07:28:51;;;;;;;15.50;6.40;;;6.80;1.00;;;;;;4957913;28;20177;-83
2022/11/27 07:31:20;;;;;;;10.18;5.88;;;6.80;1.00;;;;;;4971600;28;20191;-84
2022/11/27 07:33:46;;;;;;;11.40;7.00;;;6.80;1.00;;;;;;4971207;28;20197;-84
2022/11/27 07:36:17;;;;;;;16.70;6.57;;;6.80;99.90;;;;;;4967114;28;20272;-82
2022/11/27 07:38:43;;;;;;;8.38;6.07;;;6.80;99.90;;;;;;4952172;28;20528;-83
2022/11/27 07:41:09;;;;;;;11.77;5.22;;;6.80;99.90;;;;;;4953840;28;20189;-83
2022/11/27 07:43:35;;;;;;;15.47;8.20;;;6.80;99.90;;;;;;4968279;28;20188;-81
2022/11/27 07:46:10;;;;;;;14.10;6.80;;;6.90;99.90;;;;;;4957123;28;20535;-83
2022/11/27 07:48:36;;;;;;;12.63;7.05;;;7.00;99.90;;;;;;4953128;28;20443;-83
2022/11/27 07:51:05;;;;;;;14.38;6.45;;;7.10;99.90;;;;;;4953975;28;20177;-83
2022/11/27 07:53:30;;;;;;;14.13;7.13;;;7.20;1.00;;;;;;4963677;28;20600;-83
2022/11/27 07:55:59;;;;;;;20.60;7.83;;;7.30;99.90;;;;;;4985557;28;20292;-83
2022/11/27 07:58:24;;;;;;;14.55;6.85;;;7.40;1.00;;;;;;4968229;28;20180;-83
2022/11/27 08:00:50;;;;;;;10.07;6.67;;;7.50;1.00;;;;;;4970962;28;20248;-83
2022/11/27 08:03:15;;;;;;;10.53;6.40;;;7.60;99.90;;;;;;4960540;28;20835;-83
2022/11/27 08:05:41;;;;;;;11.47;5.90;;;7.80;1.00;;;;;;4954955;28;20739;-83
2022/11/27 08:08:06;;;;;;;12.83;6.30;;;7.90;1.00;;;;;;4955318;28;20224;-83
2022/11/27 08:10:36;;;;;;;10.93;6.70;;;8.00;99.90;;;;;;4954028;28;20184;-83
2022/11/27 08:13:02;;;;;;;13.52;7.75;;;8.10;1.00;;;;;;4954872;28;20177;-83
2022/11/27 08:15:28;;;;;;;17.27;7.70;;;8.30;1.00;;;;;;4952595;28;20205;-84
2022/11/27 08:17:54;;;;;;;11.90;8.20;;;8.40;1.00;;;;;;4954665;28;20300;-83
2022/11/27 08:20:19;;;;;;;9.40;6.90;;;8.50;99.90;;;;;;4952151;29;20185;-83
2022/11/27 08:22:45;;;;;;;13.80;6.30;;;8.60;1.00;;;;;;4955033;28;20196;-83
2022/11/27 08:25:11;;;;;;;9.85;6.60;;;8.70;1.00;;;;;;4955151;28;20209;-83
2022/11/27 08:27:38;;;;;;;9.13;6.20;;;8.70;1.00;;;;;;4958080;28;20305;-83
2022/11/27 08:30:04;;;;;;;8.17;5.43;;;8.70;99.90;;;;;;4960498;28;20228;-83
2022/11/27 08:32:30;;;;;;;11.93;5.80;;;8.70;99.90;;;;;;4957870;28;20255;-83
2022/11/27 08:34:55;;;;;;;10.50;6.03;;;8.70;99.90;;;;;;4956603;28;20652;-83
2022/11/27 08:41:14;;;;;;;8.25;6.25;;;8.60;99.90;;;;;;4803788;29;20236;-83
2022/11/27 08:43:39;;;;;;;8.70;5.43;;;8.50;99.90;;;;;;4924751;28;20685;-83
2022/11/27 08:46:06;;;;;;;7.27;5.63;;;8.50;99.90;;;;;;4953417;28;20215;-82
2022/11/27 08:48:32;;;;;;;6.73;5.07;;;8.60;99.90;;;;;;4954615;28;20550;-83
2022/11/27 08:50:57;;;;;;;8.73;5.37;;;8.60;99.90;;;;;;4953195;28;20440;-83
2022/11/27 08:53:23;;;;;;;11.17;5.67;;;8.70;99.90;;;;;;4952958;28;20623;-83
2022/11/27 08:55:48;;;;;;;8.30;5.13;;;8.70;99.90;;;;;;4952616;28;20204;-83
2022/11/27 08:58:14;;;;;;;6.93;4.80;;;8.80;99.90;;;;;;4954587;28;20196;-84
2022/11/27 09:00:40;;;;;;;8.70;5.10;;;8.80;1.00;;;;;;4952717;28;20845;-83
2022/11/27 09:03:05;;;;;;;14.90;7.87;;;8.80;1.00;;;;;;4953616;28;20197;-83
2022/11/27 09:05:31;;;;;;;7.43;6.63;;;8.80;1.00;;;;;;4951248;28;20468;-83
2022/11/27 09:07:58;;;;;;;9.40;6.03;;;8.80;1.00;;;;;;4953196;28;20591;-83
2022/11/27 09:10:24;;;;;;;11.27;6.60;;;8.90;1.00;;;;;;4952661;28;20479;-83
2022/11/27 09:12:50;;;;;;;16.77;7.10;;;9.00;1.00;;;;;;4951852;28;20437;-84
2022/11/27 09:15:16;;;;;;;10.97;6.10;;;9.00;1.00;;;;;;4967612;28;21295;-84
2022/11/27 09:17:42;;;;;;;10.13;5.23;;;9.00;1.00;;;;;;4948194;28;20229;-84
2022/11/27 09:20:08;;;;;;;8.03;4.37;;;9.00;1.00;;;;;;4967138;28;20484;-84
2022/11/27 09:36:41;;;;;;;8.60;5.82;;;8.70;1.00;;;;;;4750682;30;20255;-85
2022/11/27 09:39:37;;;;;;;9.30;5.45;;;8.70;21.70;;;;;;4727825;30;20235;-85
2022/11/27 09:43:11;;;;;;;;;;;;;;;;;;;;;
2022/11/27 09:51:50;;;;;;;11.50;6.40;;;8.80;52.20;;;;;;4935963;28;20578;-85
2022/11/27 09:54:45;;;;;;;7.07;4.20;;;8.80;99.90;;;;;;4951647;28;20199;-83
2022/11/27 09:57:15;;;;;;;8.10;5.20;;;8.80;99.90;;;;;;4936362;29;20433;-85
2022/11/27 09:59:49;;;;;;;10.50;4.90;;;8.80;99.90;;;;;;4941865;29;20463;-85
2022/11/27 10:02:31;;;;;;;7.23;4.70;;;8.70;99.90;;;;;;4920259;29;20450;-84
2022/11/27 10:04:58;;;;;;;8.55;5.38;;;8.70;99.90;;;;;;4940124;29;20452;-84
2022/11/27 10:07:50;;;;;;;8.38;3.95;;;8.70;1.00;;;;;;4936757;29;20222;-85
2022/11/27 10:10:27;;;;;;;7.80;3.95;;;8.70;1.00;;;;;;4941129;29;20185;-85
2022/11/27 10:13:23;;;;;;;7.35;4.82;;;8.70;1.00;;;;;;4942716;29;20214;-85
2022/11/27 10:16:13;;;;;;;13.55;8.38;;;8.70;99.90;;;;;;4940988;29;20217;-85
2022/11/27 10:18:54;;;;;;;8.48;4.90;;;8.70;99.90;;;;;;4938958;29;20332;-85
2022/11/27 10:21:47;;;;;;;11.40;5.50;;;8.70;99.90;;;;;;4941533;29;20201;-85
2022/11/27 10:24:47;;;;;;;7.50;4.88;;;8.80;99.90;;;;;;4939336;29;20181;-85
2022/11/27 10:27:24;;;;;;;7.60;4.93;;;8.90;99.90;;;;;;4938048;29;20288;-85
2022/11/27 10:29:54;;;;;;;8.25;4.55;;;9.10;99.90;;;;;;4940315;29;20449;-85
2022/11/27 10:32:27;;;;;;;9.37;5.00;;;9.10;44.50;;;;;;4938088;29;20228;-85
2022/11/27 10:35:10;;;;;;;7.77;5.50;;;9.20;1.00;;;;;;4946396;29;21060;-85
2022/11/27 10:38:14;;;;;;;12.57;6.43;;;9.30;1.00;;;;;;4923928;29;20849;-85
2022/11/27 10:41:03;;;;;;;13.97;8.47;;;9.40;1.00;;;;;;4863000;29;20504;-85
2022/11/27 10:43:29;;;;;;;6.13;3.80;;;9.60;1.00;;;;;;4863807;29;20456;-85
2022/11/27 10:48:52;;;;;;;5.03;3.60;;;9.70;1.00;;;;;;5978251;23;21002;-83
2022/11/27 10:51:23;;;;;;;6.87;4.57;;;9.80;1.00;;;;;;4972203;28;20459;-83
2022/11/27 10:53:52;;;;;;;8.37;5.60;;;9.90;1.00;;;;;;4985794;28;20435;-83
2022/11/27 10:56:44;;;;;;;6.80;5.20;;;10.00;1.00;;;;;;4960857;28;20518;-85
2022/11/27 10:59:17;;;;;;;6.10;4.40;;;10.10;99.90;;;;;;4974124;28;20463;-84
2022/11/27 11:01:46;;;;;;;7.50;4.77;;;10.20;99.90;;;;;;4974776;28;20456;-83
2022/11/27 11:04:14;;;;;;;6.47;4.10;;;10.30;99.90;;;;;;4974394;28;20432;-84
2022/11/27 11:06:45;;;;;;;10.13;6.50;;;10.20;99.90;;;;;;4965097;28;20464;-84
2022/11/27 11:09:23;;;;;;;5.73;4.77;;;10.20;99.90;;;;;;4973552;28;20467;-84
2022/11/27 11:11:50;;;;;;;8.20;4.83;;;10.20;99.90;;;;;;4975490;28;20467;-84
2022/11/27 11:14:21;;;;;;;7.77;4.60;;;10.20;94.70;;;;;;4976568;28;20452;-84
2022/11/27 11:16:48;;;;;;;6.40;5.60;;;10.10;93.10;;;;;;4971734;28;20431;-82
2022/11/27 11:19:42;;;;;;;5.60;4.17;;;10.10;75.50;;;;;;4973653;28;20459;-84
2022/11/27 11:22:15;;;;;;;6.03;4.00;;;10.10;99.90;;;;;;4969588;28;20440;-84
2022/11/27 11:24:49;;;;;;;8.07;5.03;;;10.10;99.90;;;;;;4975491;28;20498;-84
2022/11/27 11:27:20;;;;;;;7.07;4.87;;;10.10;89.80;;;;;;4993045;28;20458;-85
2022/11/27 11:29:45;;;;;;;8.00;4.80;;;10.20;19.70;;;;;;4979952;28;20561;-85
2022/11/27 11:32:19;;;;;;;9.07;4.30;;;10.20;7.70;;;;;;4974002;28;20443;-84
2022/11/27 11:34:54;;;;;;;7.20;4.73;;;10.40;20.00;;;;;;4965400;28;20200;-83
2022/11/27 11:37:51;;;;;;;7.57;4.80;;;10.50;1.00;;;;;;4971274;28;20475;-83
2022/11/27 11:40:24;;;;;;;12.07;8.67;;;10.60;1.00;;;;;;4972348;28;20471;-82
2022/11/27 11:42:54;;;;;;;6.73;5.43;;;10.80;1.00;;;;;;4973261;28;20439;-83
2022/11/27 11:45:21;;;;;;;8.67;5.60;;;10.90;1.00;;;;;;4964077;28;20448;-83
2022/11/27 11:48:01;;;;;;;6.50;4.97;;;11.00;1.00;;;;;;4974785;28;20472;-85
2022/11/27 11:50:37;;;;;;;4.13;3.47;;;11.10;1.00;;;;;;4969200;28;20470;-85
2022/11/27 11:53:26;;;;;;;6.57;4.80;;;11.10;1.00;;;;;;4962579;28;20431;-84
2022/11/27 11:56:16;;;;;;;7.57;4.70;;;11.10;1.00;;;;;;4977628;28;20435;-85
2022/11/27 11:58:58;;;;;;;7.43;6.40;;;11.10;1.00;;;;;;4975780;28;20970;-84
2022/11/27 12:01:24;;;;;;;7.20;3.93;;;11.10;1.00;;;;;;4976809;28;20475;-84
2022/11/27 12:04:20;;;;;;;5.00;3.60;;;11.10;1.00;;;;;;4974907;28;20443;-84
2022/11/27 12:06:50;;;;;;;6.23;3.37;;;11.10;1.00;;;;;;4975728;28;20228;-84
2022/11/27 12:09:52;;;;;;;4.47;4.07;;;11.20;1.00;;;;;;4968822;28;20774;-84
2022/11/27 12:12:36;;;;;;;6.33;4.27;;;11.20;1.00;;;;;;4974013;28;20423;-84
2022/11/27 12:21:13;;;;;;;7.63;3.60;;;11.10;1.00;;;;;;5796914;23;20556;-83
2022/11/27 12:26:34;;;;;;;4.00;3.60;;;11.00;1.00;;;;;;4981291;22;20577;-84
2022/11/27 12:29:37;;;;;;;6.50;4.07;;;10.80;1.00;;;;;;4972471;28;20455;-84
2022/11/27 12:32:23;;;;;;;5.00;3.40;;;10.80;1.00;;;;;;4974333;28;20443;-84
2022/11/27 12:35:25;;;;;;;5.83;3.13;;;10.80;1.00;;;;;;4960261;28;20467;-85
2022/11/27 12:38:06;;;;;;;7.20;3.50;;;10.70;1.00;;;;;;4952801;29;20468;-84
2022/11/27 12:40:44;;;;;;;6.40;3.03;;;10.70;1.00;;;;;;4945424;29;20444;-85
2022/11/27 12:43:26;;;;;;;4.87;3.30;;;10.70;1.00;;;;;;4953536;28;20464;-85
2022/11/27 12:46:17;;;;;;;6.33;3.20;;;10.70;1.00;;;;;;4955621;28;20448;-85
2022/11/27 12:48:50;;;;;;;4.43;3.07;;;10.80;1.00;;;;;;4950800;29;20971;-85
2022/11/27 12:51:38;;;;;;;8.90;3.40;;;10.80;1.00;;;;;;4953215;29;21832;-84
2022/11/27 12:54:29;;;;;;;7.50;3.90;;;10.80;1.00;;;;;;4925372;28;20440;-85
2022/11/27 12:57:00;;;;;;;4.83;3.10;;;10.80;1.00;;;;;;4946854;28;20895;-86
2022/11/27 12:59:42;;;;;;;4.67;4.17;;;10.70;1.00;;;;;;4951624;28;20433;-85
2022/11/27 13:02:08;;;;;;;6.00;4.50;;;10.80;1.00;;;;;;4953854;28;20428;-84
2022/11/27 13:04:38;;;;;;;8.33;3.47;;;10.80;1.00;;;;;;4955818;28;20450;-85
2022/11/27 13:07:13;;;;;;;4.10;3.23;;;10.80;1.00;;;;;;4959439;28;20204;-84
2022/11/27 13:09:59;;;;;;;6.00;3.50;;;10.80;1.00;;;;;;4956382;29;20432;-85
2022/11/27 13:12:34;;;;;;;5.43;3.40;;;10.70;1.00;;;;;;4955802;29;20523;-84
2022/11/27 13:15:23;;;;;;;4.10;3.70;;;10.70;1.00;;;;;;4956453;28;20502;-84
2022/11/27 13:17:55;;;;;;;11.13;3.67;;;10.60;1.00;;;;;;4958560;29;20425;-84
2022/11/27 13:20:28;;;;;;;4.00;3.37;;;10.50;1.00;;;;;;4956659;29;20939;-85
2022/11/27 13:22:54;;;;;;;6.50;4.20;;;10.50;1.00;;;;;;4957378;29;20487;-86
2022/11/27 13:25:20;;;;;;;7.40;3.93;;;10.50;1.00;;;;;;4966118;28;20816;-85
2022/11/27 13:27:49;;;;;;;5.10;3.80;;;10.50;1.00;;;;;;4966376;29;20204;-86
2022/11/27 13:30:22;;;;;;;5.30;4.30;;;10.60;1.00;;;;;;4967054;29;20904;-86
2022/11/27 13:33:05;;;;;;;7.37;4.40;;;10.60;1.00;;;;;;4956243;28;20455;-85
2022/11/27 13:35:35;;;;;;;5.83;5.33;;;10.60;1.00;;;;;;4966336;28;20466;-85
2022/11/27 13:38:13;;;;;;;6.33;4.23;;;10.60;1.00;;;;;;4976143;28;20442;-85
2022/11/27 13:40:42;;;;;;;6.10;3.73;;;10.60;1.00;;;;;;4972810;28;20419;-85
2022/11/27 13:43:30;;;;;;;6.23;3.50;;;10.60;1.00;;;;;;4966807;28;20434;-85
2022/11/27 13:46:16;;;;;;;10.60;4.53;;;10.60;1.00;;;;;;4964414;28;20995;-85
2022/11/27 13:48:47;;;;;;;11.40;5.27;;;10.60;1.00;;;;;;4963977;28;20839;-86
2022/11/27 13:51:26;;;;;;;8.77;4.93;;;10.60;1.00;;;;;;4955474;28;20795;-85